createdAt,value
2018-09-02T00:02:24.994Z,5.20
2018-09-02T00:04:53.656Z,3.87
2018-09-02T00:07:22.281Z,4.03
2018-09-02T00:09:50.939Z,4.00
2018-09-02T00:12:19.623Z,4.03
2018-09-02T00:14:48.231Z,4.13
2018-09-02T00:17:16.883Z,5.87
2018-09-02T00:19:45.519Z,3.77
2018-09-02T00:22:14.237Z,3.83
2018-09-02T00:24:42.956Z,5.90
2018-09-02T00:27:11.593Z,4.30
2018-09-02T00:29:40.219Z,5.67
2018-09-02T00:32:08.898Z,4.80
2018-09-02T00:34:37.532Z,4.70
2018-09-02T00:37:06.199Z,3.43
2018-09-02T00:39:34.835Z,3.90
2018-09-02T00:42:03.506Z,4.90
2018-09-02T00:44:32.179Z,5.63
2018-09-02T00:47:00.853Z,3.70
2018-09-02T00:49:29.545Z,5.13
2018-09-02T00:51:58.233Z,4.90
2018-09-02T00:54:26.882Z,6.27
2018-09-02T00:56:55.553Z,5.20
2018-09-02T00:59:24.185Z,6.17
2018-09-02T01:01:52.913Z,6.70
2018-09-02T01:04:21.580Z,4.87
2018-09-02T01:06:50.264Z,5.23
2018-09-02T01:09:18.925Z,7.93
2018-09-02T01:11:47.601Z,4.27
2018-09-02T01:14:16.240Z,5.33
2018-09-02T01:16:44.921Z,4.33
2018-09-02T01:19:13.573Z,4.70
2018-09-02T01:21:42.299Z,8.20
2018-09-02T01:24:10.964Z,4.07
2018-09-02T01:26:39.638Z,5.13
2018-09-02T01:29:08.334Z,6.13
2018-09-02T01:31:37.160Z,7.53
2018-09-02T01:34:06.049Z,10.07
2018-09-02T01:36:34.712Z,4.70
2018-09-02T01:39:03.708Z,5.30
2018-09-02T01:41:32.408Z,4.50
2018-09-02T01:44:01.071Z,5.07
2018-09-02T01:46:29.723Z,6.70
2018-09-02T01:48:58.397Z,5.27
2018-09-02T01:51:27.055Z,5.83
2018-09-02T01:53:55.723Z,5.30
2018-09-02T01:56:24.351Z,4.77
2018-09-02T01:58:53.012Z,5.50
2018-09-02T02:01:21.680Z,5.37
2018-09-02T02:03:56.625Z,7.07
2018-09-02T02:06:25.322Z,6.77
2018-09-02T02:08:53.635Z,7.97
2018-09-02T02:11:22.254Z,6.70
2018-09-02T02:13:50.886Z,6.03
2018-09-02T02:16:19.542Z,5.63
2018-09-02T02:18:48.256Z,6.03
2018-09-02T02:21:16.910Z,5.90
2018-09-02T02:23:45.784Z,5.40
2018-09-02T02:26:14.443Z,7.20
2018-09-02T02:28:43.075Z,6.43
2018-09-02T02:31:11.369Z,5.13
2018-09-02T02:33:39.996Z,7.77
2018-09-02T02:36:08.608Z,7.23
2018-09-02T02:38:37.252Z,5.67
2018-09-02T02:41:05.955Z,7.63
2018-09-02T02:43:34.635Z,6.57
2018-09-02T02:46:03.302Z,6.73
2018-09-02T02:48:31.939Z,6.17
2018-09-02T02:51:00.665Z,5.73
2018-09-02T02:53:29.332Z,6.80
2018-09-02T02:55:57.991Z,7.27
2018-09-02T02:58:26.649Z,6.17
2018-09-02T03:00:55.293Z,6.57
2018-09-02T03:03:24.044Z,5.93
2018-09-02T03:05:52.694Z,6.03
2018-09-02T03:08:21.373Z,7.47
2018-09-02T03:10:50.106Z,5.67
2018-09-02T03:13:18.758Z,7.27
2018-09-02T03:15:47.405Z,6.17
2018-09-02T03:18:16.076Z,7.43
2018-09-02T03:20:44.720Z,6.43
2018-09-02T03:23:13.384Z,7.77
2018-09-02T03:25:42.077Z,7.40
2018-09-02T03:28:10.708Z,7.63
2018-09-02T03:30:39.428Z,8.07
2018-09-02T03:33:08.049Z,7.60
2018-09-02T03:35:36.712Z,7.17
2018-09-02T03:38:05.467Z,7.87
2018-09-02T03:40:34.145Z,7.53
2018-09-02T03:43:02.817Z,8.07
2018-09-02T03:45:31.442Z,7.90
2018-09-02T03:48:00.066Z,6.43
2018-09-02T03:50:28.800Z,6.80
2018-09-02T03:52:57.500Z,6.93
2018-09-02T03:55:26.208Z,6.67
2018-09-02T03:57:55.030Z,6.00
2018-09-02T04:00:23.357Z,7.07
2018-09-02T04:02:52.017Z,6.50
2018-09-02T04:05:20.659Z,6.87
2018-09-02T04:07:49.337Z,6.43
2018-09-02T04:10:18.158Z,6.53
2018-09-02T04:12:46.833Z,5.63
2018-09-02T04:15:15.555Z,5.80
2018-09-02T04:17:44.207Z,5.90
2018-09-02T04:20:12.871Z,6.57
2018-09-02T04:22:41.591Z,6.17
2018-09-02T04:25:10.315Z,6.87
2018-09-02T04:27:38.589Z,6.67
2018-09-02T04:30:07.351Z,5.40
2018-09-02T04:32:35.972Z,6.00
2018-09-02T04:35:04.272Z,7.00
2018-09-02T04:37:32.920Z,6.83
2018-09-02T04:40:01.426Z,6.70
2018-09-02T04:42:29.716Z,6.57
2018-09-02T04:44:58.374Z,6.90
2018-09-02T04:47:27.051Z,6.90
2018-09-02T04:50:07.032Z,7.93
2018-09-02T04:52:35.658Z,7.87
2018-09-02T04:55:04.312Z,7.97
2018-09-02T04:57:33.058Z,7.07
2018-09-02T05:00:01.708Z,6.57
2018-09-02T05:02:30.030Z,7.03
2018-09-02T05:04:58.660Z,9.20
2018-09-02T05:07:27.339Z,7.00
2018-09-02T05:09:56.030Z,6.87
2018-09-02T05:12:24.736Z,6.70
2018-09-02T05:14:53.927Z,6.60
2018-09-02T05:17:23.706Z,6.73
2018-09-02T05:19:52.378Z,7.87
2018-09-02T05:22:21.177Z,7.40
2018-09-02T05:24:49.515Z,6.87
2018-09-02T05:27:18.431Z,7.47
2018-09-02T05:29:46.830Z,7.17
2018-09-02T05:32:15.107Z,9.87
2018-09-02T05:34:43.739Z,8.93
2018-09-02T05:37:12.151Z,7.67
2018-09-02T05:39:40.823Z,7.27
2018-09-02T05:42:09.551Z,7.63
2018-09-02T05:44:38.192Z,8.93
2018-09-02T05:47:06.612Z,6.10
2018-09-02T05:49:35.256Z,7.27
2018-09-02T05:52:03.679Z,6.57
2018-09-02T05:54:32.300Z,8.40
2018-09-02T05:57:00.983Z,7.60
2018-09-02T05:59:29.513Z,7.40
2018-09-02T06:01:58.197Z,7.40
2018-09-02T06:04:26.841Z,7.23
2018-09-02T06:06:55.465Z,6.57
2018-09-02T06:09:23.758Z,7.10
2018-09-02T06:11:52.058Z,5.80
2018-09-02T06:14:20.820Z,7.33
2018-09-02T06:16:49.152Z,6.47
2018-09-02T06:19:17.432Z,6.10
2018-09-02T06:21:46.073Z,6.33
2018-09-02T06:24:14.842Z,6.43
2018-09-02T06:26:43.096Z,8.23
2018-09-02T06:29:11.356Z,6.10
2018-09-02T06:31:39.971Z,5.87
2018-09-02T06:34:08.321Z,5.67
2018-09-02T06:36:36.632Z,5.73
2018-09-02T06:39:08.004Z,6.17
2018-09-02T06:41:36.368Z,4.90
2018-09-02T06:44:05.029Z,6.53
2018-09-02T06:46:33.954Z,5.33
2018-09-02T06:49:02.335Z,6.90
2018-09-02T06:51:31.004Z,5.97
2018-09-02T06:53:59.619Z,7.27
2018-09-02T06:56:28.293Z,7.23
2018-09-02T06:58:56.976Z,5.07
2018-09-02T07:01:25.615Z,5.73
2018-09-02T07:03:54.275Z,6.13
2018-09-02T07:06:22.579Z,6.57
2018-09-02T07:08:51.234Z,5.67
2018-09-02T07:11:19.907Z,5.60
2018-09-02T07:13:48.636Z,5.80
2018-09-02T07:16:16.957Z,5.73
2018-09-02T07:18:45.232Z,5.80
2018-09-02T07:21:13.974Z,5.57
2018-09-02T07:23:42.605Z,6.20
2018-09-02T07:26:11.289Z,6.37
2018-09-02T07:28:39.597Z,5.83
2018-09-02T07:31:08.300Z,5.40
2018-09-02T07:33:36.951Z,5.43
2018-09-02T07:36:05.641Z,7.60
2018-09-02T07:38:34.329Z,5.80
2018-09-02T07:41:02.653Z,5.73
2018-09-02T07:43:31.331Z,5.80
2018-09-02T07:45:59.945Z,6.50
2018-09-02T07:48:28.275Z,6.00
2018-09-02T07:50:56.562Z,6.10
2018-09-02T07:53:24.874Z,6.30
2018-09-02T07:55:53.532Z,5.70
2018-09-02T07:58:22.216Z,6.17
2018-09-02T08:00:52.381Z,5.97
2018-09-02T08:03:20.823Z,7.10
2018-09-02T08:05:49.478Z,6.00
2018-09-02T08:08:17.787Z,6.20
2018-09-02T08:10:46.504Z,7.40
2018-09-02T08:13:14.977Z,5.53
2018-09-02T08:15:45.496Z,5.33
2018-09-02T08:18:14.137Z,5.97
2018-09-02T08:20:42.915Z,5.47
2018-09-02T08:23:11.582Z,5.20
2018-09-02T08:25:39.890Z,6.83
2018-09-02T08:28:08.684Z,5.20
2018-09-02T08:30:37.514Z,6.33
2018-09-02T08:33:06.223Z,5.93
2018-09-02T08:35:34.897Z,5.27
2018-09-02T08:38:03.541Z,5.53
2018-09-02T08:40:32.222Z,5.37
2018-09-02T08:43:00.519Z,5.53
2018-09-02T08:45:29.209Z,5.73
2018-09-02T08:47:59.322Z,6.28
2018-09-02T08:50:28.016Z,5.37
2018-09-02T08:52:56.697Z,5.10
2018-09-02T08:55:25.416Z,5.47
2018-09-02T08:57:53.866Z,6.03
2018-09-02T09:00:22.586Z,5.40
2018-09-02T09:02:52.102Z,6.40
2018-09-02T09:05:20.785Z,5.50
2018-09-02T09:07:49.959Z,4.80
2018-09-02T09:10:19.537Z,5.85
2018-09-02T09:12:48.148Z,4.97
2018-09-02T09:15:16.784Z,5.08
2018-09-02T09:17:46.461Z,4.22
2018-09-02T09:20:15.088Z,4.50
2018-09-02T09:22:43.448Z,4.53
2018-09-02T09:25:12.145Z,4.90
2018-09-02T09:27:40.925Z,4.37
2018-09-02T09:30:10.090Z,6.17
2018-09-02T09:32:39.226Z,4.28
2018-09-02T09:35:07.924Z,4.20
2018-09-02T09:37:36.194Z,6.90
2018-09-02T09:40:05.115Z,5.40
2018-09-02T09:42:33.828Z,3.90
2018-09-02T09:45:02.549Z,3.65
2018-09-02T09:47:31.283Z,3.30
2018-09-02T09:49:59.948Z,5.70
2018-09-02T09:52:28.660Z,4.10
2018-09-02T09:54:57.347Z,3.40
2018-09-02T09:57:25.959Z,3.02
2018-09-02T09:59:54.734Z,3.12
2018-09-02T10:02:23.377Z,3.15
2018-09-02T10:04:51.989Z,3.85
2018-09-02T10:07:20.625Z,3.67
2018-09-02T10:09:48.941Z,3.45
2018-09-02T10:13:20.430Z,3.27
2018-09-02T10:15:49.057Z,3.37
2018-09-02T10:18:17.702Z,5.95
2018-09-02T10:20:46.358Z,2.62
2018-09-02T10:23:15.000Z,2.70
2018-09-02T10:25:43.639Z,3.35
2018-09-02T10:28:12.377Z,3.98
2018-09-02T10:30:41.079Z,2.72
2018-09-02T10:33:09.740Z,2.90
2018-09-02T10:35:38.431Z,2.75
2018-09-02T10:38:07.052Z,5.62
2018-09-02T10:40:35.737Z,3.12
2018-09-02T10:43:04.423Z,3.58
2018-09-02T10:45:33.103Z,4.05
2018-09-02T10:48:01.774Z,3.25
2018-09-02T10:50:30.393Z,3.90
2018-09-02T10:52:59.050Z,3.37
2018-09-02T10:55:27.699Z,2.65
2018-09-02T10:57:56.345Z,2.75
2018-09-02T11:00:25.034Z,2.95
2018-09-02T11:02:53.673Z,6.37
2018-09-02T11:05:22.339Z,3.37
2018-09-02T11:07:51.144Z,3.70
2018-09-02T11:10:19.820Z,2.50
2018-09-02T11:12:48.491Z,2.70
2018-09-02T11:15:17.172Z,3.65
2018-09-02T11:17:45.949Z,3.95
2018-09-02T11:20:14.609Z,3.08
2018-09-02T11:22:43.377Z,3.90
2018-09-02T11:25:12.090Z,2.65
2018-09-02T11:27:40.731Z,3.35
2018-09-02T11:30:09.377Z,2.90
2018-09-02T11:32:38.091Z,3.05
2018-09-02T11:35:06.747Z,2.70
2018-09-02T11:37:35.374Z,5.92
2018-09-02T11:40:03.724Z,3.90
2018-09-02T11:42:32.374Z,2.35
2018-09-02T11:45:01.094Z,4.17
2018-09-02T11:47:29.738Z,2.80
2018-09-02T11:49:58.408Z,2.98
2018-09-02T11:52:27.058Z,2.35
2018-09-02T11:54:55.723Z,3.10
2018-09-02T11:57:24.436Z,2.58
2018-09-02T11:59:53.093Z,2.95
2018-09-02T12:02:21.699Z,3.72
2018-09-02T12:04:50.416Z,2.95
2018-09-02T12:07:19.017Z,3.27
2018-09-02T12:09:48.930Z,2.55
2018-09-02T12:12:17.584Z,3.17
2018-09-02T12:14:46.248Z,4.28
2018-09-02T12:17:14.898Z,3.30
2018-09-02T12:19:43.525Z,2.90
2018-09-02T12:22:12.216Z,2.87
2018-09-02T12:24:40.851Z,2.55
2018-09-02T12:27:09.557Z,2.55
2018-09-02T12:29:38.431Z,2.58
2018-09-02T12:32:07.119Z,3.58
2018-09-02T12:34:35.773Z,2.35
2018-09-02T12:37:04.442Z,3.25
2018-09-02T12:39:33.209Z,3.05
2018-09-02T12:42:01.894Z,4.30
2018-09-02T12:44:30.507Z,2.15
2018-09-02T12:46:59.152Z,7.25
2018-09-02T12:49:27.957Z,2.17
2018-09-02T12:51:56.649Z,2.42
2018-09-02T12:54:25.276Z,3.20
2018-09-02T12:56:53.912Z,2.50
2018-09-02T12:59:22.536Z,2.72
2018-09-02T13:01:51.194Z,2.67
2018-09-02T13:04:19.833Z,2.80
2018-09-02T13:06:48.525Z,2.50
2018-09-02T13:09:17.226Z,5.28
2018-09-02T13:11:45.904Z,4.12
2018-09-02T13:14:14.532Z,3.42
2018-09-02T13:16:43.272Z,2.42
2018-09-02T13:19:11.854Z,2.33
2018-09-02T13:21:40.532Z,2.67
2018-09-02T13:24:09.194Z,2.50
2018-09-02T13:26:37.936Z,3.52
2018-09-02T13:29:06.741Z,5.28
2018-09-02T13:31:35.464Z,3.05
2018-09-02T13:41:03.126Z,2.45
2018-09-02T13:43:31.782Z,2.75
2018-09-02T13:46:00.413Z,3.02
2018-09-02T13:48:29.119Z,2.50
2018-09-02T13:50:57.815Z,2.75
2018-09-02T13:53:26.521Z,2.37
2018-09-02T13:55:55.155Z,2.70
2018-09-02T13:58:24.832Z,2.20
2018-09-02T14:00:53.466Z,2.50
2018-09-02T14:03:22.145Z,2.72
2018-09-02T14:05:50.768Z,2.50
2018-09-02T14:08:19.504Z,2.77
2018-09-02T14:10:48.138Z,2.00
2018-09-02T14:13:16.795Z,2.22
2018-09-02T14:15:45.434Z,2.67
2018-09-02T14:18:14.190Z,2.25
2018-09-02T14:20:42.806Z,3.95
2018-09-02T14:23:11.505Z,2.27
2018-09-02T14:25:40.176Z,2.40
2018-09-02T14:28:08.870Z,4.67
2018-09-02T14:30:37.499Z,3.65
2018-09-02T14:33:06.182Z,3.45
2018-09-02T14:35:34.882Z,2.65
2018-09-02T14:38:03.518Z,2.67
2018-09-02T14:40:32.182Z,2.20
2018-09-02T14:43:00.837Z,3.35
2018-09-02T14:45:29.523Z,2.45
2018-09-02T14:47:58.206Z,2.77
2018-09-02T14:50:27.181Z,3.83
2018-09-02T14:52:55.912Z,2.33
2018-09-02T14:55:24.661Z,3.08
2018-09-02T14:57:53.404Z,2.50
2018-09-02T15:00:22.048Z,2.72
2018-09-02T15:02:50.718Z,2.72
2018-09-02T15:05:19.437Z,2.42
2018-09-02T15:07:48.121Z,2.42
2018-09-02T15:10:16.996Z,2.20
2018-09-02T15:12:45.639Z,2.70
2018-09-02T15:15:14.320Z,2.25
2018-09-02T15:17:42.995Z,2.33
2018-09-02T15:20:11.690Z,2.60
2018-09-02T15:22:40.373Z,2.35
2018-09-02T15:25:09.013Z,3.22
2018-09-02T15:27:37.635Z,2.37
2018-09-02T15:30:06.694Z,2.25
2018-09-02T15:32:35.353Z,2.60
2018-09-02T15:35:04.174Z,2.20
2018-09-02T15:37:32.791Z,2.52
2018-09-02T15:40:01.511Z,2.83
2018-09-02T15:42:30.201Z,2.08
2018-09-02T15:44:58.904Z,2.60
2018-09-02T15:47:27.603Z,2.40
2018-09-02T15:49:56.275Z,2.67
2018-09-02T15:52:24.969Z,3.75
2018-09-02T15:54:53.727Z,2.80
2018-09-02T15:57:22.390Z,3.10
2018-09-02T15:59:51.045Z,2.45
2018-09-02T16:02:19.721Z,2.83
2018-09-02T16:04:48.376Z,3.70
2018-09-02T16:07:17.025Z,5.58
2018-09-02T16:09:45.340Z,3.70
2018-09-02T16:12:13.982Z,5.85
2018-09-02T16:14:42.614Z,3.05
2018-09-02T16:17:11.220Z,2.50
2018-09-02T16:19:39.927Z,3.15
2018-09-02T16:22:08.585Z,2.27
2018-09-02T16:24:37.227Z,4.00
2018-09-02T16:27:05.923Z,2.10
2018-09-02T16:29:34.658Z,2.30
2018-09-02T16:32:03.462Z,3.42
2018-09-02T16:34:32.156Z,2.70
2018-09-02T16:37:00.837Z,3.15
2018-09-02T16:39:29.474Z,3.25
2018-09-02T16:41:58.186Z,3.52
2018-09-02T16:44:26.855Z,2.47
2018-09-02T16:46:55.508Z,3.62
2018-09-02T16:49:24.216Z,2.30
2018-09-02T16:51:52.856Z,2.33
2018-09-02T16:54:21.700Z,2.52
2018-09-02T16:56:50.407Z,4.60
2018-09-02T16:59:19.059Z,2.37
2018-09-02T17:01:47.705Z,2.20
2018-09-02T17:04:16.667Z,4.47
2018-09-02T17:06:45.307Z,2.70
2018-09-02T17:09:13.964Z,2.12
2018-09-02T17:11:42.672Z,5.85
2018-09-02T17:14:11.280Z,2.50
2018-09-02T17:16:39.956Z,4.22
2018-09-02T17:19:14.941Z,2.55
2018-09-02T17:21:43.694Z,4.70
2018-09-02T17:24:12.373Z,3.80
2018-09-02T17:26:41.053Z,2.60
2018-09-02T17:29:10.493Z,2.50
2018-09-02T17:31:39.764Z,3.20
2018-09-02T17:34:08.399Z,2.67
2018-09-02T17:36:37.104Z,2.40
2018-09-02T17:39:08.171Z,2.58
2018-09-02T17:41:36.826Z,2.55
2018-09-02T17:44:05.528Z,2.40
2018-09-02T17:46:34.171Z,3.00
2018-09-02T17:49:02.840Z,2.70
2018-09-02T17:51:31.900Z,2.40
2018-09-02T17:54:00.519Z,2.30
2018-09-02T17:56:29.260Z,3.55
2018-09-02T17:58:57.560Z,2.75
2018-09-02T18:01:26.559Z,2.10
2018-09-02T18:03:54.875Z,2.33
2018-09-02T18:06:23.499Z,2.58
2018-09-02T18:08:51.780Z,2.70
2018-09-02T18:11:20.485Z,4.65
2018-09-02T18:13:49.111Z,2.33
2018-09-02T18:16:17.898Z,2.60
2018-09-02T18:19:49.069Z,2.42
2018-09-02T18:24:52.200Z,2.20
2018-09-02T18:27:23.104Z,2.45
2018-09-02T18:29:58.677Z,2.83
2018-09-02T18:32:29.487Z,3.77
2018-09-02T18:34:59.193Z,2.80
2018-09-02T18:37:27.885Z,4.47
2018-09-02T18:39:57.282Z,2.90
2018-09-02T18:42:26.335Z,2.70
2018-09-02T18:44:55.355Z,3.25
2018-09-02T18:47:24.099Z,3.58
2018-09-02T18:49:52.788Z,2.85
2018-09-02T18:52:21.513Z,2.50
2018-09-02T18:54:50.122Z,2.40
2018-09-02T18:57:19.327Z,2.85
2018-09-02T18:59:48.709Z,2.85
2018-09-02T19:02:17.709Z,5.20
2018-09-02T19:04:46.356Z,2.50
2018-09-02T19:07:16.419Z,2.58
2018-09-02T19:09:46.920Z,2.70
2018-09-02T19:12:16.422Z,3.02
2018-09-02T19:14:46.049Z,3.12
2018-09-02T19:17:14.880Z,2.92
2018-09-02T19:19:44.580Z,3.37
2018-09-02T19:22:13.007Z,3.17
2018-09-02T19:24:42.397Z,3.35
2018-09-02T19:27:11.144Z,2.72
2018-09-02T19:29:39.941Z,3.55
2018-09-02T19:32:09.083Z,3.40
2018-09-02T19:34:37.777Z,2.80
2018-09-02T19:37:06.999Z,2.87
2018-09-02T19:39:36.131Z,2.77
2018-09-02T19:42:04.900Z,2.50
2018-09-02T19:44:33.882Z,2.60
2018-09-02T19:47:02.722Z,3.05
2018-09-02T19:49:31.453Z,3.00
2018-09-02T19:52:00.176Z,2.65
2018-09-02T19:54:28.833Z,3.17
2018-09-02T19:56:57.516Z,3.85
2018-09-02T19:59:26.156Z,3.00
2018-09-02T20:01:54.805Z,3.10
2018-09-02T20:04:23.488Z,2.90
2018-09-02T20:06:52.129Z,3.08
2018-09-02T20:09:20.803Z,3.25
2018-09-02T20:11:49.430Z,2.90
2018-09-02T20:14:18.119Z,3.75
2018-09-02T20:16:46.806Z,2.65
2018-09-02T20:19:15.492Z,5.80
2018-09-02T20:21:44.152Z,4.65
2018-09-02T20:24:12.830Z,2.80
2018-09-02T20:26:41.541Z,3.08
2018-09-02T20:29:10.190Z,4.40
2018-09-02T20:31:38.880Z,3.33
2018-09-02T20:34:07.559Z,3.08
2018-09-02T20:36:36.219Z,3.52
2018-09-02T20:39:07.506Z,3.30
2018-09-02T20:41:36.232Z,3.20
2018-09-02T20:44:04.550Z,3.47
2018-09-02T20:46:33.216Z,4.28
2018-09-02T20:49:01.902Z,3.58
2018-09-02T20:51:30.185Z,3.42
2018-09-02T20:53:58.868Z,3.72
2018-09-02T20:56:27.522Z,3.62
2018-09-02T20:58:56.197Z,3.10
2018-09-02T21:01:24.468Z,3.62
2018-09-02T21:03:52.841Z,3.25
2018-09-02T21:06:21.488Z,2.98
2018-09-02T21:08:50.137Z,3.17
2018-09-02T21:11:18.778Z,3.95
2018-09-02T21:13:47.446Z,4.80
2018-09-02T21:16:16.109Z,2.92
2018-09-02T21:18:44.811Z,2.90
2018-09-02T21:21:13.460Z,3.40
2018-09-02T21:23:42.128Z,3.50
2018-09-02T21:26:10.782Z,3.80
2018-09-02T21:28:39.465Z,3.02
2018-09-02T21:31:08.224Z,2.80
2018-09-02T21:33:36.922Z,5.47
2018-09-02T21:36:05.647Z,3.08
2018-09-02T21:38:34.263Z,3.67
2018-09-02T21:41:17.637Z,3.15
2018-09-02T21:43:46.278Z,3.17
2018-09-02T21:46:14.925Z,3.45
2018-09-02T21:48:43.556Z,2.87
2018-09-02T21:51:12.251Z,3.75
2018-09-02T21:53:41.112Z,3.35
2018-09-02T21:56:09.753Z,5.12
2018-09-02T21:58:38.395Z,3.40
2018-09-02T22:01:07.085Z,3.27
2018-09-02T22:03:35.769Z,3.90
2018-09-02T22:06:04.081Z,3.85
2018-09-02T22:08:32.777Z,3.85
2018-09-02T22:11:01.429Z,3.08
2018-09-02T22:13:30.047Z,5.37
2018-09-02T22:15:58.677Z,6.10
2018-09-02T22:18:27.328Z,3.10
2018-09-02T22:20:55.949Z,3.30
2018-09-02T22:23:24.607Z,2.92
2018-09-02T22:25:53.230Z,3.40
2018-09-02T22:28:21.866Z,3.92
2018-09-02T22:30:50.604Z,3.37
2018-09-02T22:33:19.340Z,3.67
2018-09-02T22:35:48.033Z,3.12
2018-09-02T22:38:16.723Z,3.20
2018-09-02T22:40:45.445Z,3.90
2018-09-02T22:43:14.054Z,3.67
2018-09-02T22:45:42.731Z,3.10
2018-09-02T22:48:11.056Z,5.47
2018-09-02T22:50:39.698Z,3.45
2018-09-02T22:53:08.350Z,3.42
2018-09-02T22:55:36.983Z,3.22
2018-09-02T22:58:05.669Z,3.27
2018-09-02T23:00:34.315Z,4.10
2018-09-02T23:03:02.911Z,3.02
2018-09-02T23:05:31.549Z,3.10
2018-09-02T23:08:00.213Z,4.72
2018-09-02T23:10:28.868Z,3.12
2018-09-02T23:12:58.178Z,3.70
2018-09-02T23:15:26.794Z,4.10
2018-09-02T23:17:55.437Z,3.83
2018-09-02T23:20:24.122Z,3.58
2018-09-02T23:22:52.816Z,3.77
2018-09-02T23:25:21.534Z,3.33
2018-09-02T23:27:50.146Z,4.25
2018-09-02T23:30:18.828Z,3.50
2018-09-02T23:32:47.622Z,3.22
2018-09-02T23:35:16.280Z,2.75
2018-09-02T23:37:44.912Z,3.40
2018-09-02T23:40:13.605Z,3.27
2018-09-02T23:42:42.245Z,3.27
2018-09-02T23:45:11.260Z,3.00
2018-09-02T23:47:39.909Z,3.30
2018-09-02T23:50:08.653Z,4.15
2018-09-02T23:52:37.307Z,3.80
2018-09-02T23:55:06.041Z,3.72
2018-09-02T23:57:34.709Z,2.98
